sensor_id;sensor_type;location;lat;lon;timestamp;P1;durP1;ratioP1;P2;durP2;ratioP2
20146;SDS011;10234;50.856;15.716;2023-07-20T00:01:50;1.30;;;1.20;;
20146;SDS011;10234;50.856;15.716;2023-07-20T00:04:17;0.77;;;0.77;;
20146;SDS011;10234;50.856;15.716;2023-07-20T00:06:45;1.95;;;0.80;;
20146;SDS011;10234;50.856;15.716;2023-07-20T00:09:11;0.80;;;0.80;;
20146;SDS011;10234;50.856;15.716;2023-07-20T00:11:39;1.15;;;0.82;;
20146;SDS011;10234;50.856;15.716;2023-07-20T00:14:13;0.70;;;0.70;;
20146;SDS011;10234;50.856;15.716;2023-07-20T00:16:40;1.48;;;0.90;;
20146;SDS011;10234;50.856;15.716;2023-07-20T00:19:07;0.98;;;0.70;;
20146;SDS011;10234;50.856;15.716;2023-07-20T00:21:35;1.73;;;0.80;;
20146;SDS011;10234;50.856;15.716;2023-07-20T00:24:05;2.10;;;1.02;;
20146;SDS011;10234;50.856;15.716;2023-07-20T00:26:32;1.00;;;0.68;;
20146;SDS011;10234;50.856;15.716;2023-07-20T00:29:01;0.63;;;0.63;;
20146;SDS011;10234;50.856;15.716;2023-07-20T00:31:29;1.85;;;1.00;;
20146;SDS011;10234;50.856;15.716;2023-07-20T00:33:56;0.98;;;0.90;;
20146;SDS011;10234;50.856;15.716;2023-07-20T00:36:22;1.40;;;1.08;;
20146;SDS011;10234;50.856;15.716;2023-07-20T00:38:49;1.67;;;1.00;;
20146;SDS011;10234;50.856;15.716;2023-07-20T00:41:16;2.17;;;0.93;;
20146;SDS011;10234;50.856;15.716;2023-07-20T00:43:43;1.35;;;0.80;;
20146;SDS011;10234;50.856;15.716;2023-07-20T00:46:11;1.40;;;1.13;;
20146;SDS011;10234;50.856;15.716;2023-07-20T00:48:38;0.90;;;0.90;;
20146;SDS011;10234;50.856;15.716;2023-07-20T00:51:06;2.20;;;1.02;;
20146;SDS011;10234;50.856;15.716;2023-07-20T00:53:33;1.20;;;0.80;;
20146;SDS011;10234;50.856;15.716;2023-07-20T00:56:00;2.15;;;1.20;;
20146;SDS011;10234;50.856;15.716;2023-07-20T00:58:28;0.68;;;0.68;;
20146;SDS011;10234;50.856;15.716;2023-07-20T01:00:55;1.30;;;0.95;;
20146;SDS011;10234;50.856;15.716;2023-07-20T01:03:24;0.80;;;0.80;;
20146;SDS011;10234;50.856;15.716;2023-07-20T01:05:51;1.20;;;0.75;;
20146;SDS011;10234;50.856;15.716;2023-07-20T01:08:24;0.75;;;0.75;;
20146;SDS011;10234;50.856;15.716;2023-07-20T01:10:57;0.90;;;0.90;;
20146;SDS011;10234;50.856;15.716;2023-07-20T01:13:31;1.08;;;0.90;;
20146;SDS011;10234;50.856;15.716;2023-07-20T01:16:00;0.80;;;0.80;;
20146;SDS011;10234;50.856;15.716;2023-07-20T01:18:28;2.35;;;1.10;;
20146;SDS011;10234;50.856;15.716;2023-07-20T01:20:57;1.33;;;1.00;;
20146;SDS011;10234;50.856;15.716;2023-07-20T01:23:45;1.08;;;0.80;;
20146;SDS011;10234;50.856;15.716;2023-07-20T01:26:45;1.08;;;0.98;;
20146;SDS011;10234;50.856;15.716;2023-07-20T01:29:34;0.93;;;0.80;;
20146;SDS011;10234;50.856;15.716;2023-07-20T01:32:19;1.17;;;0.80;;
20146;SDS011;10234;50.856;15.716;2023-07-20T01:34:50;0.80;;;0.80;;
20146;SDS011;10234;50.856;15.716;2023-07-20T01:37:20;1.00;;;0.90;;
20146;SDS011;10234;50.856;15.716;2023-07-20T01:39:50;1.00;;;0.90;;
20146;SDS011;10234;50.856;15.716;2023-07-20T01:42:20;1.25;;;1.00;;
20146;SDS011;10234;50.856;15.716;2023-07-20T01:44:47;1.10;;;1.00;;
20146;SDS011;10234;50.856;15.716;2023-07-20T01:47:14;1.10;;;0.82;;
20146;SDS011;10234;50.856;15.716;2023-07-20T01:49:43;0.68;;;0.68;;
20146;SDS011;10234;50.856;15.716;2023-07-20T01:52:10;1.00;;;0.80;;
20146;SDS011;10234;50.856;15.716;2023-07-20T01:54:36;3.80;;;1.05;;
20146;SDS011;10234;50.856;15.716;2023-07-20T01:57:03;1.25;;;1.08;;
20146;SDS011;10234;50.856;15.716;2023-07-20T01:59:30;2.55;;;1.00;;
20146;SDS011;10234;50.856;15.716;2023-07-20T02:01:58;1.58;;;1.10;;
20146;SDS011;10234;50.856;15.716;2023-07-20T02:04:25;1.10;;;0.93;;
20146;SDS011;10234;50.856;15.716;2023-07-20T02:06:53;2.05;;;0.90;;
20146;SDS011;10234;50.856;15.716;2023-07-20T02:09:19;0.95;;;0.90;;
20146;SDS011;10234;50.856;15.716;2023-07-20T02:11:47;0.95;;;0.85;;
20146;SDS011;10234;50.856;15.716;2023-07-20T02:14:13;2.35;;;1.00;;
20146;SDS011;10234;50.856;15.716;2023-07-20T02:16:40;1.25;;;1.15;;
20146;SDS011;10234;50.856;15.716;2023-07-20T02:19:07;1.67;;;1.13;;
20146;SDS011;10234;50.856;15.716;2023-07-20T02:21:34;1.17;;;1.08;;
20146;SDS011;10234;50.856;15.716;2023-07-20T02:24:03;2.75;;;1.20;;
20146;SDS011;10234;50.856;15.716;2023-07-20T02:26:30;1.30;;;1.20;;
20146;SDS011;10234;50.856;15.716;2023-07-20T02:28:57;1.88;;;1.02;;
20146;SDS011;10234;50.856;15.716;2023-07-20T02:31:23;1.52;;;1.20;;
20146;SDS011;10234;50.856;15.716;2023-07-20T02:33:50;1.67;;;1.23;;
20146;SDS011;10234;50.856;15.716;2023-07-20T02:36:17;2.20;;;1.38;;
20146;SDS011;10234;50.856;15.716;2023-07-20T02:38:44;1.55;;;1.30;;
20146;SDS011;10234;50.856;15.716;2023-07-20T02:41:13;2.53;;;1.58;;
20146;SDS011;10234;50.856;15.716;2023-07-20T02:43:40;1.70;;;1.55;;
20146;SDS011;10234;50.856;15.716;2023-07-20T02:46:07;1.55;;;1.45;;
20146;SDS011;10234;50.856;15.716;2023-07-20T02:48:34;2.90;;;1.60;;
20146;SDS011;10234;50.856;15.716;2023-07-20T02:51:00;2.42;;;1.70;;
20146;SDS011;10234;50.856;15.716;2023-07-20T02:53:27;5.70;;;1.90;;
20146;SDS011;10234;50.856;15.716;2023-07-20T02:55:54;1.80;;;1.65;;
20146;SDS011;10234;50.856;15.716;2023-07-20T02:58:23;1.95;;;1.80;;
20146;SDS011;10234;50.856;15.716;2023-07-20T03:00:50;2.03;;;1.85;;
20146;SDS011;10234;50.856;15.716;2023-07-20T03:03:17;2.20;;;2.00;;
20146;SDS011;10234;50.856;15.716;2023-07-20T03:05:44;5.43;;;3.58;;
20146;SDS011;10234;50.856;15.716;2023-07-20T03:08:11;8.63;;;4.88;;
20146;SDS011;10234;50.856;15.716;2023-07-20T03:10:38;7.07;;;5.55;;
20146;SDS011;10234;50.856;15.716;2023-07-20T03:13:06;6.88;;;5.50;;
20146;SDS011;10234;50.856;15.716;2023-07-20T03:15:35;7.10;;;4.68;;
20146;SDS011;10234;50.856;15.716;2023-07-20T03:18:02;8.27;;;6.00;;
20146;SDS011;10234;50.856;15.716;2023-07-20T03:20:29;7.15;;;6.45;;
20146;SDS011;10234;50.856;15.716;2023-07-20T03:22:56;7.88;;;6.63;;
20146;SDS011;10234;50.856;15.716;2023-07-20T03:25:23;7.88;;;6.22;;
20146;SDS011;10234;50.856;15.716;2023-07-20T03:27:50;6.68;;;5.15;;
20146;SDS011;10234;50.856;15.716;2023-07-20T03:30:17;3.75;;;2.85;;
20146;SDS011;10234;50.856;15.716;2023-07-20T03:32:45;3.40;;;3.10;;
20146;SDS011;10234;50.856;15.716;2023-07-20T03:35:12;3.35;;;3.08;;
20146;SDS011;10234;50.856;15.716;2023-07-20T03:37:40;7.10;;;3.00;;
20146;SDS011;10234;50.856;15.716;2023-07-20T03:40:08;3.92;;;3.08;;
20146;SDS011;10234;50.856;15.716;2023-07-20T03:42:35;3.60;;;3.30;;
20146;SDS011;10234;50.856;15.716;2023-07-20T03:45:04;5.20;;;4.00;;
20146;SDS011;10234;50.856;15.716;2023-07-20T03:47:31;5.15;;;4.20;;
20146;SDS011;10234;50.856;15.716;2023-07-20T03:50:00;5.05;;;4.18;;
20146;SDS011;10234;50.856;15.716;2023-07-20T03:52:26;6.88;;;4.70;;
20146;SDS011;10234;50.856;15.716;2023-07-20T03:54:53;5.25;;;4.75;;
20146;SDS011;10234;50.856;15.716;2023-07-20T03:57:20;8.75;;;4.85;;
20146;SDS011;10234;50.856;15.716;2023-07-20T03:59:47;5.55;;;4.72;;
20146;SDS011;10234;50.856;15.716;2023-07-20T04:02:14;6.30;;;4.43;;
20146;SDS011;10234;50.856;15.716;2023-07-20T04:04:41;5.80;;;4.53;;
20146;SDS011;10234;50.856;15.716;2023-07-20T04:07:09;6.75;;;4.43;;
20146;SDS011;10234;50.856;15.716;2023-07-20T04:09:36;6.00;;;4.53;;
20146;SDS011;10234;50.856;15.716;2023-07-20T04:12:03;6.00;;;4.13;;
20146;SDS011;10234;50.856;15.716;2023-07-20T04:14:30;5.53;;;3.95;;
20146;SDS011;10234;50.856;15.716;2023-07-20T04:16:57;4.60;;;4.20;;
20146;SDS011;10234;50.856;15.716;2023-07-20T04:19:25;4.85;;;4.38;;
20146;SDS011;10234;50.856;15.716;2023-07-20T04:21:52;6.35;;;4.22;;
20146;SDS011;10234;50.856;15.716;2023-07-20T04:24:21;6.90;;;4.07;;
20146;SDS011;10234;50.856;15.716;2023-07-20T04:26:47;5.10;;;4.60;;
20146;SDS011;10234;50.856;15.716;2023-07-20T04:29:14;5.45;;;4.53;;
20146;SDS011;10234;50.856;15.716;2023-07-20T04:31:41;3.95;;;3.55;;
20146;SDS011;10234;50.856;15.716;2023-07-20T04:34:08;4.07;;;3.03;;
20146;SDS011;10234;50.856;15.716;2023-07-20T04:36:35;3.65;;;3.33;;
20146;SDS011;10234;50.856;15.716;2023-07-20T04:39:02;3.58;;;3.28;;
20146;SDS011;10234;50.856;15.716;2023-07-20T04:41:31;3.28;;;2.90;;
20146;SDS011;10234;50.856;15.716;2023-07-20T04:43:57;4.32;;;3.30;;
20146;SDS011;10234;50.856;15.716;2023-07-20T04:46:24;3.33;;;3.03;;
20146;SDS011;10234;50.856;15.716;2023-07-20T04:48:51;3.78;;;3.47;;
20146;SDS011;10234;50.856;15.716;2023-07-20T04:51:18;3.47;;;3.17;;
20146;SDS011;10234;50.856;15.716;2023-07-20T04:53:46;4.20;;;3.00;;
20146;SDS011;10234;50.856;15.716;2023-07-20T04:56:13;3.35;;;3.05;;
20146;SDS011;10234;50.856;15.716;2023-07-20T04:58:41;4.15;;;2.90;;
20146;SDS011;10234;50.856;15.716;2023-07-20T05:01:08;3.47;;;2.90;;
20146;SDS011;10234;50.856;15.716;2023-07-20T05:03:35;3.13;;;2.92;;
20146;SDS011;10234;50.856;15.716;2023-07-20T05:06:02;3.58;;;3.25;;
20146;SDS011;10234;50.856;15.716;2023-07-20T05:08:29;4.30;;;3.40;;
20146;SDS011;10234;50.856;15.716;2023-07-20T05:10:56;5.07;;;3.15;;
20146;SDS011;10234;50.856;15.716;2023-07-20T05:13:23;4.28;;;3.10;;
20146;SDS011;10234;50.856;15.716;2023-07-20T05:15:52;5.03;;;3.13;;
20146;SDS011;10234;50.856;15.716;2023-07-20T05:18:19;3.08;;;2.78;;
20146;SDS011;10234;50.856;15.716;2023-07-20T05:20:46;2.53;;;1.60;;
20146;SDS011;10234;50.856;15.716;2023-07-20T05:23:14;3.72;;;1.65;;
20146;SDS011;10234;50.856;15.716;2023-07-20T05:25:41;3.58;;;1.92;;
20146;SDS011;10234;50.856;15.716;2023-07-20T05:28:08;1.77;;;1.67;;
20146;SDS011;10234;50.856;15.716;2023-07-20T05:30:35;1.67;;;1.58;;
20146;SDS011;10234;50.856;15.716;2023-07-20T05:33:03;2.13;;;1.80;;
20146;SDS011;10234;50.856;15.716;2023-07-20T05:35:30;1.50;;;1.40;;
20146;SDS011;10234;50.856;15.716;2023-07-20T05:37:57;1.67;;;1.50;;
20146;SDS011;10234;50.856;15.716;2023-07-20T05:40:24;5.45;;;1.98;;
20146;SDS011;10234;50.856;15.716;2023-07-20T05:42:51;2.25;;;1.25;;
20146;SDS011;10234;50.856;15.716;2023-07-20T05:45:20;1.38;;;1.27;;
20146;SDS011;10234;50.856;15.716;2023-07-20T05:47:47;1.50;;;1.40;;
20146;SDS011;10234;50.856;15.716;2023-07-20T05:50:16;3.05;;;1.50;;
20146;SDS011;10234;50.856;15.716;2023-07-20T05:52:43;1.80;;;1.70;;
20146;SDS011;10234;50.856;15.716;2023-07-20T05:55:10;2.25;;;1.70;;
20146;SDS011;10234;50.856;15.716;2023-07-20T05:57:37;1.52;;;1.40;;
20146;SDS011;10234;50.856;15.716;2023-07-20T06:00:07;3.67;;;1.63;;
20146;SDS011;10234;50.856;15.716;2023-07-20T06:02:35;1.70;;;1.60;;
20146;SDS011;10234;50.856;15.716;2023-07-20T06:05:02;2.72;;;1.50;;
20146;SDS011;10234;50.856;15.716;2023-07-20T06:07:30;1.45;;;1.35;;
20146;SDS011;10234;50.856;15.716;2023-07-20T06:09:57;4.15;;;1.17;;
20146;SDS011;10234;50.856;15.716;2023-07-20T06:12:24;3.40;;;1.40;;
20146;SDS011;10234;50.856;15.716;2023-07-20T06:14:51;1.75;;;1.65;;
20146;SDS011;10234;50.856;15.716;2023-07-20T06:17:18;1.58;;;1.48;;
20146;SDS011;10234;50.856;15.716;2023-07-20T06:19:46;1.52;;;1.40;;
20146;SDS011;10234;50.856;15.716;2023-07-20T06:22:13;2.58;;;1.25;;
20146;SDS011;10234;50.856;15.716;2023-07-20T06:24:41;1.70;;;1.00;;
20146;SDS011;10234;50.856;15.716;2023-07-20T06:27:07;1.30;;;1.10;;
20146;SDS011;10234;50.856;15.716;2023-07-20T06:29:35;3.67;;;1.20;;
20146;SDS011;10234;50.856;15.716;2023-07-20T06:32:02;1.73;;;1.50;;
20146;SDS011;10234;50.856;15.716;2023-07-20T06:34:29;2.15;;;1.20;;
20146;SDS011;10234;50.856;15.716;2023-07-20T06:36:56;1.95;;;1.10;;
20146;SDS011;10234;50.856;15.716;2023-07-20T06:39:23;1.00;;;1.00;;
20146;SDS011;10234;50.856;15.716;2023-07-20T06:41:52;1.30;;;1.17;;
20146;SDS011;10234;50.856;15.716;2023-07-20T06:44:18;2.03;;;1.20;;
20146;SDS011;10234;50.856;15.716;2023-07-20T06:46:46;1.27;;;1.02;;
20146;SDS011;10234;50.856;15.716;2023-07-20T06:49:19;4.57;;;1.05;;
20146;SDS011;10234;50.856;15.716;2023-07-20T06:51:50;1.55;;;1.30;;
20146;SDS011;10234;50.856;15.716;2023-07-20T06:54:18;2.05;;;0.90;;
